createdAt,value
2017-02-05T00:00:23.544Z,98829
2017-02-05T00:01:23.541Z,98830
2017-02-05T00:02:23.090Z,98825
2017-02-05T00:03:23.178Z,98823
2017-02-05T00:04:23.157Z,98828
2017-02-05T00:05:23.266Z,98831
2017-02-05T00:06:23.291Z,98829
2017-02-05T00:07:23.869Z,98833
2017-02-05T00:08:23.962Z,98831
2017-02-05T00:09:23.448Z,98829
2017-02-05T00:10:23.427Z,98826
2017-02-05T00:11:24.066Z,98828
2017-02-05T00:12:24.199Z,98826
2017-02-05T00:13:24.214Z,98824
2017-02-05T00:14:23.774Z,98828
2017-02-05T00:15:24.366Z,98833
2017-02-05T00:16:24.470Z,98832
2017-02-05T00:17:23.971Z,98830
2017-02-05T00:18:24.569Z,98828
2017-02-05T00:19:24.086Z,98827
2017-02-05T00:20:24.597Z,98833
2017-02-05T00:21:24.164Z,98832
2017-02-05T00:22:24.805Z,98828
2017-02-05T00:23:24.259Z,98836
2017-02-05T00:24:24.905Z,98838
2017-02-05T00:25:24.974Z,98839
2017-02-05T00:26:24.473Z,98838
2017-02-05T00:27:24.441Z,98842
2017-02-05T00:28:24.489Z,98840
2017-02-05T00:29:24.623Z,98843
2017-02-05T00:30:24.617Z,98843
2017-02-05T00:31:25.205Z,98849
2017-02-05T00:32:25.240Z,98849
2017-02-05T00:33:24.773Z,98845
2017-02-05T00:34:25.329Z,98849
2017-02-05T00:35:25.435Z,98846
2017-02-05T00:36:25.020Z,98845
2017-02-05T00:37:25.028Z,98840
2017-02-05T00:38:25.644Z,98848
2017-02-05T00:39:25.209Z,98846
2017-02-05T00:40:25.780Z,98848
2017-02-05T00:41:25.263Z,98851
2017-02-05T00:42:25.240Z,98849
2017-02-05T00:43:25.902Z,98850
2017-02-05T00:44:25.378Z,98852
2017-02-05T00:45:25.441Z,98856
2017-02-05T00:46:25.967Z,98850
2017-02-05T00:47:26.048Z,98853
2017-02-05T00:48:26.113Z,98848
2017-02-05T00:49:26.190Z,98846
2017-02-05T00:50:25.658Z,98854
2017-02-05T00:51:26.226Z,98846
2017-02-05T00:52:26.208Z,98851
2017-02-05T00:53:25.802Z,98856
2017-02-05T00:54:26.379Z,98858
2017-02-05T00:55:26.739Z,98857
2017-02-05T00:56:26.548Z,98858
2017-02-05T00:57:26.123Z,98855
2017-02-05T00:58:26.657Z,98849
2017-02-05T00:59:26.732Z,98856
2017-02-05T01:00:26.268Z,98857
2017-02-05T01:01:26.645Z,98860
2017-02-05T01:02:26.944Z,98861
2017-02-05T01:03:26.439Z,98860
2017-02-05T01:04:26.449Z,98860
2017-02-05T01:05:27.061Z,98856
2017-02-05T01:06:27.138Z,98862
2017-02-05T01:07:26.964Z,98861
2017-02-05T01:08:26.759Z,98862
2017-02-05T01:09:27.332Z,98863
2017-02-05T01:10:26.807Z,98862
2017-02-05T01:11:27.439Z,98865
2017-02-05T01:12:26.976Z,98866
2017-02-05T01:13:27.785Z,98871
2017-02-05T01:14:27.620Z,98870
2017-02-05T01:15:27.151Z,98868
2017-02-05T01:16:27.188Z,98870
2017-02-05T01:17:27.240Z,98875
2017-02-05T01:18:27.768Z,98868
2017-02-05T01:19:28.143Z,98875
2017-02-05T01:20:27.866Z,98878
2017-02-05T01:21:27.325Z,98869
2017-02-05T01:22:27.391Z,98874
2017-02-05T01:23:28.029Z,98877
2017-02-05T01:24:27.520Z,98875
2017-02-05T01:25:28.354Z,98880
2017-02-05T01:26:27.595Z,98879
2017-02-05T01:27:27.679Z,98880
2017-02-05T01:28:28.215Z,98878
2017-02-05T01:29:28.238Z,98880
2017-02-05T01:30:28.270Z,98886
2017-02-05T01:31:28.636Z,98888
2017-02-05T01:32:28.405Z,98886
2017-02-05T01:33:27.901Z,98888
2017-02-05T01:34:27.953Z,98889
2017-02-05T01:35:28.518Z,98883
2017-02-05T01:36:28.103Z,98882
2017-02-05T01:37:28.396Z,98882
2017-02-05T01:38:28.197Z,98885
2017-02-05T01:39:28.855Z,98888
2017-02-05T01:40:28.374Z,98887
2017-02-05T01:41:28.456Z,98889
2017-02-05T01:42:28.473Z,98889
2017-02-05T01:43:28.823Z,98890
2017-02-05T01:44:29.167Z,98889
2017-02-05T01:45:28.655Z,98889
2017-02-05T01:46:29.216Z,98898
2017-02-05T01:47:28.815Z,98895
2017-02-05T01:48:29.402Z,98892
2017-02-05T01:49:29.686Z,98893
2017-02-05T01:50:28.921Z,98896
2017-02-05T01:51:28.974Z,98900
2017-02-05T01:52:29.583Z,98896
2017-02-05T01:53:29.558Z,98896
2017-02-05T01:54:29.118Z,98897
2017-02-05T01:55:29.479Z,98890
2017-02-05T01:56:29.141Z,98892
2017-02-05T01:57:29.235Z,98892
2017-02-05T01:58:29.847Z,98892
2017-02-05T01:59:29.854Z,98895
2017-02-05T02:00:29.918Z,98884
2017-02-05T02:01:30.204Z,98896
2017-02-05T02:02:29.508Z,98894
2017-02-05T02:03:30.035Z,98888
2017-02-05T02:04:30.108Z,98894
2017-02-05T02:05:29.583Z,98896
2017-02-05T02:06:29.627Z,98898
2017-02-05T02:07:29.960Z,98895
2017-02-05T02:08:29.712Z,98897
2017-02-05T02:09:29.816Z,98896
2017-02-05T02:10:29.817Z,98896
2017-02-05T02:11:30.420Z,98893
2017-02-05T02:12:29.974Z,98905
2017-02-05T02:13:30.896Z,98903
2017-02-05T02:14:30.158Z,98904
2017-02-05T02:15:30.197Z,98902
2017-02-05T02:16:30.751Z,98898
2017-02-05T02:17:30.768Z,98902
2017-02-05T02:18:30.303Z,98905
2017-02-05T02:19:30.627Z,98901
2017-02-05T02:20:30.987Z,98901
2017-02-05T02:21:30.525Z,98904
2017-02-05T02:22:31.133Z,98907
2017-02-05T02:23:30.617Z,98909
2017-02-05T02:24:31.232Z,98907
2017-02-05T02:25:31.530Z,98904
2017-02-05T02:26:31.367Z,98897
2017-02-05T02:27:31.423Z,98905
2017-02-05T02:28:30.903Z,98907
2017-02-05T02:29:31.446Z,98910
2017-02-05T02:30:30.997Z,98902
2017-02-05T02:31:31.426Z,98902
2017-02-05T02:32:31.095Z,98907
2017-02-05T02:33:31.153Z,98909
2017-02-05T02:34:31.214Z,98909
2017-02-05T02:35:31.843Z,98905
2017-02-05T02:36:31.977Z,98906
2017-02-05T02:37:32.158Z,98903
2017-02-05T02:38:31.477Z,98912
2017-02-05T02:39:31.596Z,98913
2017-02-05T02:40:31.647Z,98914
2017-02-05T02:41:32.254Z,98915
2017-02-05T02:42:32.325Z,98912
2017-02-05T02:43:32.022Z,98917
2017-02-05T02:44:31.889Z,98922
2017-02-05T02:45:32.500Z,98918
2017-02-05T02:46:32.654Z,98922
2017-02-05T02:47:32.565Z,98923
2017-02-05T02:48:32.596Z,98925
2017-02-05T02:49:33.013Z,98924
2017-02-05T02:50:32.750Z,98930
2017-02-05T02:51:32.852Z,98932
2017-02-05T02:52:32.356Z,98927
2017-02-05T02:53:32.929Z,98930
2017-02-05T02:54:32.494Z,98933
2017-02-05T02:55:32.813Z,98927
2017-02-05T02:56:32.579Z,98928
2017-02-05T02:57:32.671Z,98928
2017-02-05T02:58:33.269Z,98928
2017-02-05T02:59:32.743Z,98924
2017-02-05T03:00:32.831Z,98927
2017-02-05T03:01:33.166Z,98922
2017-02-05T03:02:34.022Z,98929
2017-02-05T03:03:32.919Z,98924
2017-02-05T03:04:33.417Z,98923
2017-02-05T03:05:33.540Z,98924
2017-02-05T03:06:33.065Z,98923
2017-02-05T03:07:33.410Z,98927
2017-02-05T03:08:33.675Z,98924
2017-02-05T03:09:33.122Z,98921
2017-02-05T03:10:33.201Z,98923
2017-02-05T03:11:33.218Z,98927
2017-02-05T03:12:33.245Z,98919
2017-02-05T03:13:33.550Z,98927
2017-02-05T03:14:33.857Z,98928
2017-02-05T03:15:33.838Z,98925
2017-02-05T03:16:33.339Z,98927
2017-02-05T03:17:33.940Z,98923
2017-02-05T03:18:33.474Z,98934
2017-02-05T03:19:34.249Z,98931
2017-02-05T03:20:34.008Z,98937
2017-02-05T03:21:33.496Z,98932
2017-02-05T03:22:33.560Z,98938
2017-02-05T03:23:34.163Z,98932
2017-02-05T03:24:33.643Z,98932
2017-02-05T03:25:33.954Z,98935
2017-02-05T03:26:33.758Z,98935
2017-02-05T03:27:33.736Z,98936
2017-02-05T03:28:33.865Z,98937
2017-02-05T03:29:34.466Z,98932
2017-02-05T03:30:34.464Z,98937
2017-02-05T03:31:34.328Z,98936
2017-02-05T03:32:34.101Z,98938
2017-02-05T03:33:35.166Z,98936
2017-02-05T03:34:34.688Z,98943
2017-02-05T03:35:34.742Z,98941
2017-02-05T03:36:34.860Z,98942
2017-02-05T03:37:35.164Z,98933
2017-02-05T03:38:34.997Z,98933
2017-02-05T03:39:34.994Z,98941
2017-02-05T03:40:34.566Z,98943
2017-02-05T03:41:35.039Z,98943
2017-02-05T03:42:35.089Z,98940
2017-02-05T03:43:34.859Z,98948
2017-02-05T03:44:34.621Z,98948
2017-02-05T03:53:03.264Z,98951
2017-02-05T03:54:03.107Z,98951
2017-02-05T03:55:03.182Z,98950
2017-02-05T03:56:03.742Z,98948
2017-02-05T03:57:03.821Z,98948
2017-02-05T03:58:03.303Z,98953
2017-02-05T03:59:03.619Z,98949
2017-02-05T04:00:03.321Z,98948
2017-02-05T04:01:03.927Z,98943
2017-02-05T04:02:03.896Z,98940
2017-02-05T04:03:04.034Z,98945
2017-02-05T04:04:03.555Z,98949
2017-02-05T04:05:03.913Z,98946
2017-02-05T04:06:03.741Z,98943
2017-02-05T04:07:03.805Z,98943
2017-02-05T04:08:04.342Z,98951
2017-02-05T04:09:04.445Z,98956
2017-02-05T04:10:04.529Z,98943
2017-02-05T04:11:04.854Z,98948
2017-02-05T04:12:04.575Z,98946
2017-02-05T04:13:04.065Z,98950
2017-02-05T04:14:04.692Z,98938
2017-02-05T04:15:04.253Z,98948
2017-02-05T04:16:04.843Z,98947
2017-02-05T04:17:05.079Z,98940
2017-02-05T04:18:04.303Z,98940
2017-02-05T04:19:04.869Z,98949
2017-02-05T04:20:04.477Z,98949
2017-02-05T04:21:05.112Z,98941
2017-02-05T04:22:04.535Z,98950
2017-02-05T04:23:05.410Z,98952
2017-02-05T04:24:05.191Z,98950
2017-02-05T04:25:04.684Z,98955
2017-02-05T04:26:04.723Z,98954
2017-02-05T04:27:05.253Z,98954
2017-02-05T04:28:04.740Z,98957
2017-02-05T04:29:05.056Z,98953
2017-02-05T04:30:05.372Z,98957
2017-02-05T04:31:05.370Z,98958
2017-02-05T04:32:05.460Z,98960
2017-02-05T04:33:05.516Z,98954
2017-02-05T04:34:05.010Z,98954
2017-02-05T04:35:05.328Z,98946
2017-02-05T04:36:05.728Z,98951
2017-02-05T04:37:05.764Z,98953
2017-02-05T04:38:05.259Z,98950
2017-02-05T04:39:05.816Z,98957
2017-02-05T04:40:05.821Z,98957
2017-02-05T04:41:05.541Z,98963
2017-02-05T04:42:05.833Z,98962
2017-02-05T04:43:05.341Z,98963
2017-02-05T04:44:05.432Z,98961
2017-02-05T04:45:05.985Z,98963
2017-02-05T04:46:06.063Z,98968
2017-02-05T04:47:06.286Z,98962
2017-02-05T04:48:05.479Z,98964
2017-02-05T04:49:06.095Z,98969
2017-02-05T04:50:05.673Z,98957
2017-02-05T04:51:06.199Z,98965
2017-02-05T04:52:06.203Z,98961
2017-02-05T04:53:06.572Z,98965
2017-02-05T04:54:05.832Z,98963
2017-02-05T04:55:05.901Z,98965
2017-02-05T04:56:05.882Z,98961
2017-02-05T04:57:05.979Z,98966
2017-02-05T04:58:06.055Z,98960
2017-02-05T04:59:06.894Z,98964
2017-02-05T05:00:06.681Z,98967
2017-02-05T05:01:06.718Z,98960
2017-02-05T05:02:06.297Z,98972
2017-02-05T05:03:06.392Z,98970
2017-02-05T05:04:06.491Z,98968
2017-02-05T05:05:07.316Z,98966
2017-02-05T05:06:07.138Z,98969
2017-02-05T05:07:06.640Z,98968
2017-02-05T05:08:06.630Z,98963
2017-02-05T05:09:07.245Z,98959
2017-02-05T05:10:06.683Z,98966
2017-02-05T05:11:07.033Z,98961
2017-02-05T05:12:07.332Z,98957
2017-02-05T05:13:07.412Z,98960
2017-02-05T05:14:06.980Z,98957
2017-02-05T05:15:07.494Z,98956
2017-02-05T05:16:07.555Z,98959
2017-02-05T05:17:07.915Z,98956
2017-02-05T05:18:07.658Z,98960
2017-02-05T05:19:07.237Z,98957
2017-02-05T05:20:07.253Z,98959
2017-02-05T05:21:07.936Z,98956
2017-02-05T05:22:07.388Z,98960
2017-02-05T05:23:07.771Z,98965
2017-02-05T05:24:08.048Z,98963
2017-02-05T05:25:07.648Z,98968
2017-02-05T05:26:08.191Z,98965
2017-02-05T05:27:07.785Z,98967
2017-02-05T05:28:08.309Z,98964
2017-02-05T05:29:08.638Z,98966
2017-02-05T05:30:07.845Z,98965
2017-02-05T05:31:08.439Z,98962
2017-02-05T05:32:08.493Z,98967
2017-02-05T05:33:07.976Z,98966
2017-02-05T05:34:08.501Z,98962
2017-02-05T05:35:08.921Z,98960
2017-02-05T05:36:08.191Z,98965
2017-02-05T05:37:08.230Z,98963
2017-02-05T05:38:08.863Z,98965
2017-02-05T05:39:08.338Z,98968
2017-02-05T05:40:08.854Z,98963
2017-02-05T05:41:09.218Z,98969
2017-02-05T05:42:08.419Z,98967
2017-02-05T05:43:08.992Z,98966
2017-02-05T05:44:08.576Z,98964
2017-02-05T05:45:09.106Z,98968
2017-02-05T05:46:09.190Z,98965
2017-02-05T05:47:08.957Z,98964
2017-02-05T05:48:09.239Z,98971
2017-02-05T05:49:09.341Z,98969
2017-02-05T05:50:09.386Z,98970
2017-02-05T05:51:09.377Z,98961
2017-02-05T05:52:08.977Z,98964
2017-02-05T05:53:09.296Z,98963
2017-02-05T05:54:09.107Z,98964
2017-02-05T05:55:09.183Z,98962
2017-02-05T05:56:09.708Z,98963
2017-02-05T05:57:09.246Z,98958
2017-02-05T05:58:09.897Z,98959
2017-02-05T05:59:09.694Z,98951
2017-02-05T06:00:10.082Z,98956
2017-02-05T06:01:10.082Z,98957
2017-02-05T06:02:09.616Z,98957
2017-02-05T06:03:10.219Z,98959
2017-02-05T06:04:10.266Z,98960
2017-02-05T06:05:10.095Z,98953
2017-02-05T06:06:10.408Z,98952
2017-02-05T06:07:09.961Z,98955
2017-02-05T06:08:10.042Z,98956
2017-02-05T06:09:10.579Z,98954
2017-02-05T06:10:10.558Z,98953
2017-02-05T06:11:10.351Z,98952
2017-02-05T06:12:10.593Z,98958
2017-02-05T06:13:10.051Z,98955
2017-02-05T06:14:10.148Z,98958
2017-02-05T06:15:10.717Z,98958
2017-02-05T06:16:10.173Z,98959
2017-02-05T06:17:11.102Z,98960
2017-02-05T06:18:10.243Z,98958
2017-02-05T06:19:10.815Z,98959
2017-02-05T06:20:10.380Z,98968
2017-02-05T06:21:10.385Z,98963
2017-02-05T06:22:10.341Z,98962
2017-02-05T06:23:11.184Z,98964
2017-02-05T06:24:10.991Z,98965
2017-02-05T06:25:11.066Z,98968
2017-02-05T06:26:10.632Z,98973
2017-02-05T06:27:11.170Z,98970
2017-02-05T06:28:11.307Z,98971
2017-02-05T06:29:11.640Z,98967
2017-02-05T06:30:10.878Z,98964
2017-02-05T06:31:10.965Z,98965
2017-02-05T06:32:11.455Z,98967
2017-02-05T06:33:11.571Z,98962
2017-02-05T06:34:11.582Z,98964
2017-02-05T06:35:11.925Z,98967
2017-02-05T06:36:11.636Z,98961
2017-02-05T06:37:11.199Z,98965
2017-02-05T06:38:11.262Z,98962
2017-02-05T06:39:11.238Z,98963
2017-02-05T06:40:11.886Z,98967
2017-02-05T06:41:12.157Z,98969
2017-02-05T06:42:11.907Z,98969
2017-02-05T06:43:11.497Z,98969
2017-02-05T06:44:11.539Z,98968
2017-02-05T06:45:11.570Z,98974
2017-02-05T06:46:12.176Z,98976
2017-02-05T06:47:12.734Z,98972
2017-02-05T06:48:11.734Z,98975
2017-02-05T06:49:11.742Z,98972
2017-02-05T06:50:12.342Z,98982
2017-02-05T06:51:12.378Z,98981
2017-02-05T06:52:11.959Z,98986
2017-02-05T06:53:12.787Z,98984
2017-02-05T06:54:11.950Z,98985
2017-02-05T06:55:12.511Z,98985
2017-02-05T06:56:12.546Z,98990
2017-02-05T06:57:12.068Z,98993
2017-02-05T06:58:12.653Z,98993
2017-02-05T06:59:12.510Z,98999
2017-02-05T07:00:12.274Z,99001
2017-02-05T07:01:12.368Z,99004
2017-02-05T07:02:12.966Z,99007
2017-02-05T07:03:12.986Z,99006
2017-02-05T07:04:12.522Z,99007
2017-02-05T07:05:13.325Z,99002
2017-02-05T07:06:13.113Z,99002
2017-02-05T07:07:13.211Z,99007
2017-02-05T07:08:12.727Z,99006
2017-02-05T07:09:13.374Z,99007
2017-02-05T07:10:13.123Z,98998
2017-02-05T07:11:12.908Z,99007
2017-02-05T07:12:12.970Z,99006
2017-02-05T07:13:13.013Z,99007
2017-02-05T07:14:13.644Z,99003
2017-02-05T07:15:13.095Z,99012
2017-02-05T07:16:13.980Z,99008
2017-02-05T07:17:13.210Z,99008
2017-02-05T07:18:13.853Z,99003
2017-02-05T07:19:13.850Z,99006
2017-02-05T07:20:13.370Z,99006
2017-02-05T07:21:13.377Z,99009
2017-02-05T07:22:13.594Z,99004
2017-02-05T07:23:13.948Z,99012
2017-02-05T07:24:13.953Z,99007
2017-02-05T07:25:13.502Z,99005
2017-02-05T07:26:13.513Z,98998
2017-02-05T07:27:13.561Z,99001
2017-02-05T07:28:14.537Z,99000
2017-02-05T07:29:13.741Z,99002
2017-02-05T07:30:14.350Z,99004
2017-02-05T07:31:14.370Z,99012
2017-02-05T07:32:14.481Z,99007
2017-02-05T07:33:14.444Z,99013
2017-02-05T07:34:14.277Z,99009
2017-02-05T07:35:14.631Z,99009
2017-02-05T07:36:14.609Z,99019
2017-02-05T07:37:14.718Z,99017
2017-02-05T07:38:14.791Z,99016
2017-02-05T07:39:14.283Z,99014
2017-02-05T07:40:15.147Z,99013
2017-02-05T07:41:14.434Z,99011
2017-02-05T07:42:14.451Z,99006
2017-02-05T07:43:14.552Z,99010
2017-02-05T07:44:15.125Z,99012
2017-02-05T07:45:14.618Z,99004
2017-02-05T07:46:15.470Z,99002
2017-02-05T07:47:14.729Z,98997
2017-02-05T07:48:14.833Z,98998
2017-02-05T07:49:15.408Z,98992
2017-02-05T07:50:14.887Z,98987
2017-02-05T07:51:15.469Z,98995
2017-02-05T07:52:15.278Z,98993
2017-02-05T07:53:15.614Z,98990
2017-02-05T07:54:15.083Z,98993
2017-02-05T07:55:15.685Z,98995
2017-02-05T07:56:15.189Z,98994
2017-02-05T07:57:15.208Z,98994
2017-02-05T07:58:15.547Z,98996
2017-02-05T07:59:15.848Z,99005
2017-02-05T08:00:15.324Z,99003
2017-02-05T08:01:15.870Z,99004
2017-02-05T08:02:15.939Z,99002
2017-02-05T08:03:15.958Z,99008
2017-02-05T08:04:16.285Z,99009
2017-02-05T08:05:15.475Z,99006
2017-02-05T08:06:16.097Z,99010
2017-02-05T08:07:15.638Z,99011
2017-02-05T08:08:16.250Z,99008
2017-02-05T08:09:15.783Z,99007
2017-02-05T08:10:16.673Z,99009
2017-02-05T08:11:16.449Z,99008
2017-02-05T08:12:15.971Z,99007
2017-02-05T08:13:16.049Z,99003
2017-02-05T08:14:16.148Z,99006
2017-02-05T08:15:16.236Z,99007
2017-02-05T08:16:17.106Z,99006
2017-02-05T08:17:16.301Z,99005
2017-02-05T08:18:16.919Z,99001
2017-02-05T08:19:17.010Z,99001
2017-02-05T08:20:16.543Z,99006
2017-02-05T08:21:16.688Z,99006
2017-02-05T08:22:17.049Z,99005
2017-02-05T08:23:16.826Z,99007
2017-02-05T08:24:17.385Z,99000
2017-02-05T08:25:17.420Z,99012
2017-02-05T08:26:16.919Z,99012
2017-02-05T08:27:17.575Z,99009
2017-02-05T08:28:17.952Z,99009
2017-02-05T08:29:17.177Z,99011
2017-02-05T08:30:17.766Z,99013
2017-02-05T08:31:17.758Z,99014
2017-02-05T08:32:18.180Z,99014
2017-02-05T08:33:18.330Z,99019
2017-02-05T08:34:18.693Z,99019
2017-02-05T08:35:17.895Z,99015
2017-02-05T08:36:18.231Z,99012
2017-02-05T08:37:18.284Z,99013
2017-02-05T08:38:18.272Z,99012
2017-02-05T08:39:18.290Z,99022
2017-02-05T08:40:18.542Z,99020
2017-02-05T08:41:17.797Z,99023
2017-02-05T08:42:18.293Z,99018
2017-02-05T08:43:18.742Z,99018
2017-02-05T08:44:18.856Z,99019
2017-02-05T08:45:18.057Z,99017
2017-02-05T08:46:19.040Z,99018
2017-02-05T08:47:18.705Z,99015
2017-02-05T08:48:18.604Z,99012
2017-02-05T08:49:18.864Z,99021
2017-02-05T08:50:18.806Z,99015
2017-02-05T08:51:18.773Z,99016
2017-02-05T08:52:19.742Z,99017
2017-02-05T08:53:18.857Z,99005
2017-02-05T08:54:19.041Z,99000
2017-02-05T08:55:18.187Z,99002
2017-02-05T08:56:18.248Z,99003
2017-02-05T08:57:18.329Z,99003
2017-02-05T08:58:19.238Z,99004
2017-02-05T08:59:18.408Z,99001
2017-02-05T09:00:18.960Z,99005
2017-02-05T09:01:19.040Z,99005
2017-02-05T09:02:18.573Z,99007
2017-02-05T09:03:18.623Z,99006
2017-02-05T09:04:18.926Z,99002
2017-02-05T09:05:19.211Z,99008
2017-02-05T09:06:18.735Z,99005
2017-02-05T09:07:19.301Z,99003
2017-02-05T09:08:19.357Z,98999
2017-02-05T09:09:19.372Z,99004
2017-02-05T09:10:19.180Z,99005
2017-02-05T09:11:18.972Z,99004
2017-02-05T09:12:19.594Z,99010
2017-02-05T09:13:19.175Z,99003
2017-02-05T09:14:19.218Z,98999
2017-02-05T09:15:19.248Z,99003
2017-02-05T09:16:19.614Z,99006
2017-02-05T09:17:19.401Z,99001
2017-02-05T09:18:19.479Z,99004
2017-02-05T09:19:20.114Z,99001
2017-02-05T09:20:19.612Z,99000
2017-02-05T09:21:20.214Z,98999
2017-02-05T09:22:20.524Z,99002
2017-02-05T09:23:20.315Z,99002
2017-02-05T09:24:19.841Z,99001
2017-02-05T09:25:19.915Z,99007
2017-02-05T09:26:19.898Z,99006
2017-02-05T09:27:20.519Z,99005
2017-02-05T09:28:20.390Z,99008
2017-02-05T09:29:20.689Z,99004
2017-02-05T09:30:21.599Z,99000
2017-02-05T09:31:20.703Z,99008
2017-02-05T09:32:20.190Z,99009
2017-02-05T09:33:20.301Z,99017
2017-02-05T09:34:21.186Z,99018
2017-02-05T09:35:20.409Z,99015
2017-02-05T09:36:20.983Z,99010
2017-02-05T09:37:20.505Z,99015
2017-02-05T09:38:20.570Z,99006
2017-02-05T09:39:20.566Z,99016
2017-02-05T09:40:21.405Z,99006
2017-02-05T09:41:20.627Z,99012
2017-02-05T09:42:21.235Z,99016
2017-02-05T09:43:20.711Z,99014
2017-02-05T09:44:20.723Z,99019
2017-02-05T09:45:21.358Z,99016
2017-02-05T09:46:21.610Z,99020
2017-02-05T09:47:20.849Z,99020
2017-02-05T09:48:20.858Z,99024
2017-02-05T09:49:21.488Z,99022
2017-02-05T09:50:21.549Z,99021
2017-02-05T09:51:21.033Z,99025
2017-02-05T09:52:21.464Z,99028
2017-02-05T09:53:21.163Z,99027
2017-02-05T09:54:21.186Z,99025
2017-02-05T09:55:21.771Z,99025
2017-02-05T09:56:21.290Z,99029
2017-02-05T09:57:21.847Z,99019
2017-02-05T09:58:21.698Z,99022
2017-02-05T09:59:21.448Z,99024
2017-02-05T10:00:21.542Z,99022
2017-02-05T10:01:22.036Z,99024
2017-02-05T10:02:21.544Z,99026
2017-02-05T10:03:21.639Z,99021
2017-02-05T10:04:21.893Z,99023
2017-02-05T10:05:21.766Z,99013
2017-02-05T10:06:22.290Z,99016
2017-02-05T10:07:21.781Z,99020
2017-02-05T10:08:21.838Z,99017
2017-02-05T10:09:22.357Z,99022
2017-02-05T10:10:22.207Z,99019
2017-02-05T10:11:21.997Z,99016
2017-02-05T10:12:22.578Z,99021
2017-02-05T10:13:22.070Z,99022
2017-02-05T10:14:22.705Z,99026
2017-02-05T10:15:22.704Z,99018
2017-02-05T10:16:23.034Z,99023
2017-02-05T10:17:22.805Z,99022
2017-02-05T10:18:22.915Z,99020
2017-02-05T10:19:22.427Z,99021
2017-02-05T10:20:22.528Z,99021
2017-02-05T10:21:22.586Z,99019
2017-02-05T10:22:22.956Z,99015
2017-02-05T10:23:22.654Z,99015
2017-02-05T10:24:22.742Z,99015
2017-02-05T10:25:22.794Z,99012
2017-02-05T10:26:23.339Z,99004
2017-02-05T10:27:22.904Z,99010
2017-02-05T10:28:23.813Z,99004
2017-02-05T10:29:23.063Z,99005
2017-02-05T10:30:23.096Z,99000
2017-02-05T10:31:23.180Z,99003
2017-02-05T10:32:23.797Z,98999
2017-02-05T10:33:23.782Z,98998
2017-02-05T10:34:24.105Z,99000
2017-02-05T10:35:23.886Z,98999
2017-02-05T10:36:23.402Z,98997
2017-02-05T10:37:24.000Z,99002
2017-02-05T10:38:23.533Z,98996
2017-02-05T10:39:24.112Z,98999
2017-02-05T10:40:23.953Z,99004
2017-02-05T10:41:23.756Z,98995
2017-02-05T10:42:23.789Z,99002
2017-02-05T10:43:24.418Z,99000
2017-02-05T10:44:24.421Z,98997
2017-02-05T10:45:24.453Z,98999
2017-02-05T10:46:24.684Z,98997
2017-02-05T10:47:23.962Z,98999
2017-02-05T10:48:24.023Z,99002
2017-02-05T10:49:24.553Z,98998
2017-02-05T10:50:24.640Z,99002
2017-02-05T10:51:24.174Z,99004
2017-02-05T10:52:25.105Z,99000
2017-02-05T10:53:24.934Z,99002
2017-02-05T10:54:25.021Z,99004
2017-02-05T10:55:25.018Z,98998
2017-02-05T10:56:24.536Z,99006
2017-02-05T10:57:24.636Z,99001
2017-02-05T10:58:25.075Z,99006
2017-02-05T10:59:24.757Z,98999
2017-02-05T11:00:24.787Z,98999
2017-02-05T11:01:25.391Z,98998
2017-02-05T11:02:24.991Z,98997
2017-02-05T11:03:25.005Z,98986
2017-02-05T11:04:25.362Z,98988
2017-02-05T11:05:25.595Z,98987
2017-02-05T11:06:25.642Z,98979
2017-02-05T11:07:25.694Z,98977
2017-02-05T11:08:25.751Z,98966
2017-02-05T11:09:25.846Z,98969
2017-02-05T11:10:25.630Z,98968
2017-02-05T11:11:25.413Z,98966
2017-02-05T11:12:25.485Z,98967
2017-02-05T11:13:26.050Z,98968
2017-02-05T11:14:25.557Z,98964
2017-02-05T11:15:26.180Z,98969
2017-02-05T11:16:25.895Z,98968
2017-02-05T11:17:26.272Z,98971
2017-02-05T11:18:25.746Z,98969
2017-02-05T11:19:25.825Z,98965
2017-02-05T11:20:25.805Z,98967
2017-02-05T11:21:25.843Z,98965
2017-02-05T11:22:26.771Z,98965
2017-02-05T11:23:26.485Z,98969
2017-02-05T11:24:26.007Z,98969
2017-02-05T11:25:26.549Z,98968
2017-02-05T11:26:26.584Z,98966
2017-02-05T11:27:26.108Z,98968
2017-02-05T11:28:26.450Z,98972
2017-02-05T11:29:26.757Z,98973
2017-02-05T11:30:26.291Z,98971
2017-02-05T11:31:26.303Z,98975
2017-02-05T11:32:26.342Z,98978
2017-02-05T11:33:26.441Z,98977
2017-02-05T11:34:27.312Z,98982
2017-02-05T11:35:27.061Z,98980
2017-02-05T11:36:27.113Z,98981
2017-02-05T11:37:27.157Z,98987
2017-02-05T11:38:27.261Z,98990
2017-02-05T11:39:27.300Z,98984
2017-02-05T11:40:27.657Z,98992
2017-02-05T11:41:26.915Z,98985
2017-02-05T11:42:26.970Z,98990
2017-02-05T11:43:26.972Z,98983
2017-02-05T11:44:27.074Z,98987
2017-02-05T11:45:27.099Z,98990
2017-02-05T11:46:28.966Z,98990
2017-02-05T11:47:27.212Z,98982
2017-02-05T11:48:27.308Z,98991
2017-02-05T11:49:27.338Z,98979
2017-02-05T11:50:27.412Z,98989
2017-02-05T11:51:27.471Z,98994
2017-02-05T11:52:27.837Z,98992
2017-02-05T11:53:28.137Z,98998
2017-02-05T11:54:27.595Z,98995
2017-02-05T11:55:28.186Z,98988
2017-02-05T11:56:27.709Z,98994
2017-02-05T11:57:27.759Z,98984
2017-02-05T11:58:28.659Z,98986
2017-02-05T11:59:27.794Z,98982
2017-02-05T12:00:27.877Z,98986
2017-02-05T12:01:27.883Z,98986
2017-02-05T12:02:28.456Z,98988
2017-02-05T12:03:27.950Z,98989
2017-02-05T12:04:28.225Z,98986
2017-02-05T12:05:27.983Z,98989
2017-02-05T12:06:28.542Z,98990
2017-02-05T12:07:28.036Z,98992
2017-02-05T12:08:28.105Z,98993
2017-02-05T12:09:28.149Z,98992
2017-02-05T12:10:28.427Z,98994
2017-02-05T12:11:28.168Z,98989
2017-02-05T12:12:28.244Z,98986
2017-02-05T12:13:28.243Z,98992
2017-02-05T12:14:28.325Z,98994
2017-02-05T12:15:28.929Z,98995
2017-02-05T12:16:29.271Z,98992
2017-02-05T12:17:29.072Z,98996
2017-02-05T12:18:28.503Z,98994
2017-02-05T12:19:29.087Z,98988
2017-02-05T12:20:28.601Z,98988
2017-02-05T12:21:29.197Z,98980
2017-02-05T12:22:29.055Z,98975
2017-02-05T12:23:29.351Z,98976
2017-02-05T12:24:28.841Z,98977
2017-02-05T12:25:28.848Z,98976
2017-02-05T12:26:29.509Z,98977
2017-02-05T12:27:29.012Z,98978
2017-02-05T12:28:29.882Z,98984
2017-02-05T12:29:29.672Z,98983
2017-02-05T12:30:29.759Z,98985
2017-02-05T12:31:29.245Z,98981
2017-02-05T12:32:29.251Z,98984
2017-02-05T12:33:29.276Z,98980
2017-02-05T12:34:30.090Z,98978
2017-02-05T12:35:29.833Z,98981
2017-02-05T12:36:29.315Z,98983
2017-02-05T12:37:29.921Z,98981
2017-02-05T12:38:29.430Z,98981
2017-02-05T12:39:29.492Z,98983
2017-02-05T12:40:29.807Z,98984
2017-02-05T12:41:29.505Z,98988
2017-02-05T12:42:30.089Z,98987
2017-02-05T12:43:29.598Z,98987
2017-02-05T12:44:30.139Z,98987
2017-02-05T12:45:30.153Z,98987
2017-02-05T12:46:29.943Z,98983
2017-02-05T12:47:30.289Z,98987
2017-02-05T12:48:29.783Z,98988
2017-02-05T12:49:29.800Z,98984
2017-02-05T12:50:29.945Z,98989
2017-02-05T12:51:30.013Z,98988
2017-02-05T12:52:30.836Z,98990
2017-02-05T12:53:30.071Z,98990
2017-02-05T12:54:30.712Z,98989
2017-02-05T12:55:30.779Z,98986
2017-02-05T12:56:30.823Z,98985
2017-02-05T12:57:30.875Z,98987
2017-02-05T12:58:30.597Z,98984
2017-02-05T12:59:30.382Z,98988
2017-02-05T13:00:30.976Z,98979